Aérodrome :
LOGIN :

S'inscrire | Disclaimer

   EN    FR    IT 

 










Légende :    VFR   VFR Marginal   IFR   IFR Intensif   IFR Très Intensif
Visi : 
Plafond : 
>= 8 km
>= 3000ft
5 à 8 km
1000 à 3000 ft
1500m à 5 km
500 à 1000 ft
800 à 1500m
200 à 500 ft
< 800m
< 200 ft
Symboles :   Orages  Brouillard  Fortes neiges  Fortes précipitations  Vent > 20 kt
SIGMETs :   Divers  Orages  Givrage  Turbulence  Onde Orograph.  Cendres Volcan.






- Altitude de l'aérodrome : 123 ft
- Code IATA : BLQ


LIPE - Bologna Guglielmo Marconi

DERNIER METAR :
  • 111920Z 26005KT 1900 BR SCT002 BKN005 08/08 Q1010

METARs EXPIRÉS :
  • 111850Z 26004KT 2000 BR SCT002 BKN005 09/08 Q1010
  • 111820Z 28004KT 2000 -DZ BR SCT002 BKN004 09/08 Q1010
  • 111750Z 29004KT 1700 -DZ BR SCT002 BKN004 08/08 Q1010
  • 111720Z 30003KT 1800 -DZ BR SCT002 BKN004 09/08 Q1010
  • 111650Z 29003KT 1800 -DZ BR SCT002 BKN006 09/08 Q1011

TAF TAF LIPE
Valide du 11 à 18h jusqu'au 12 à 18h UTC


111700Z 1118/1218 VRB04KT 1500 BR SCT003 BKN006 BKN020
TEMPO 1120/1205 0600 FG
BECMG 1204/1206 29010KT 4000 RA



MET'MAP, la Météo Aéronautique d'un coup d'oeil ! - Copyright ORBIFLY Décembre 2007 - Disclaimer

ORBIFLY MET'MAP TEAM :

Programmation & Développement : Alexandra Zaïnal
Conception & Développement : Baudouin d'Aumeries
Co-Programmation & Développement : Marc-Olivier Méhu
Soutien technique & logistique : Manuel Goepfert

Contact : metmap@orbifly.com




SOURCES & CREDITS :

   NOAA